Time;durP1;ratioP1;P1;durP2;ratioP2;P2;SDS_P1;SDS_P2;PMS_P1;PMS_P2;Temp;Humidity;BMP_temperature;BMP_pressure;BME280_temperature;BME280_humidity;BME280_pressure;Samples;Min_cycle;Max_cycle;Signal;HPM_P1;HPM_P2
2023/01/16 04:04:22;;;;;;;10.53;10.00;;;-0.10;99.90;;;;;;4863485;29;20232;-79
2023/01/16 04:06:50;;;;;;;11.60;10.90;;;-0.20;99.90;;;;;;4842007;29;20261;-79
2023/01/16 04:09:29;;;;;;;10.40;9.90;;;-0.20;99.90;;;;;;4844620;29;20277;-79
2023/01/16 04:11:56;;;;;;;11.87;11.23;;;-0.30;99.90;;;;;;4844576;29;20579;-80
2023/01/16 04:14:24;;;;;;;9.47;8.87;;;-0.40;99.90;;;;;;4845955;29;20193;-80
2023/01/16 04:16:52;;;;;;;9.43;8.73;;;-0.40;99.90;;;;;;4844427;29;20189;-80
2023/01/16 04:19:19;;;;;;;15.67;9.80;;;-0.40;99.90;;;;;;4844048;29;20817;-79
2023/01/16 04:21:47;;;;;;;12.07;10.90;;;-0.30;99.90;;;;;;4846410;29;20232;-80
2023/01/16 04:24:13;;;;;;;12.93;11.83;;;-0.40;99.90;;;;;;4845758;29;20186;-82
2023/01/16 04:26:39;;;;;;;22.10;14.13;;;-0.40;99.90;;;;;;4845858;29;20186;-80
2023/01/16 04:29:05;;;;;;;17.53;14.60;;;-0.30;99.90;;;;;;4849890;29;20193;-79
2023/01/16 04:31:30;;;;;;;15.73;12.80;;;-0.30;99.90;;;;;;4841414;29;20230;-79
2023/01/16 04:33:56;;;;;;;15.23;12.87;;;-0.30;99.90;;;;;;4829843;29;20261;-80
2023/01/16 04:36:22;;;;;;;18.77;13.53;;;-0.40;99.90;;;;;;4825827;29;20193;-78
2023/01/16 04:38:48;;;;;;;20.43;14.40;;;-0.40;99.90;;;;;;4824526;29;20323;-80
2023/01/16 04:41:35;;;;;;;24.93;19.07;;;-0.30;99.90;;;;;;4824682;29;20225;-80
2023/01/16 04:43:59;;;;;;;22.43;16.03;;;-0.40;99.90;;;;;;4826566;29;20205;-80
2023/01/16 04:46:25;;;;;;;16.17;14.17;;;-0.50;99.90;;;;;;4832766;29;20191;-81
2023/01/16 04:48:51;;;;;;;15.67;12.57;;;-0.40;99.90;;;;;;4825396;29;20242;-81
2023/01/16 04:51:16;;;;;;;15.37;13.97;;;-0.40;99.90;;;;;;4824344;29;20242;-81
2023/01/16 04:53:42;;;;;;;13.43;12.07;;;-0.50;99.90;;;;;;4825665;29;20232;-80
2023/01/16 04:56:08;;;;;;;12.53;11.50;;;-0.50;99.90;;;;;;4823855;29;20599;-70
2023/01/16 04:58:34;;;;;;;14.33;13.13;;;-0.50;99.90;;;;;;4821559;29;20297;-68
2023/01/16 05:00:59;;;;;;;17.40;16.30;;;-0.50;99.90;;;;;;4833921;29;20213;-68
2023/01/16 05:03:25;;;;;;;28.80;27.30;;;-0.40;99.90;;;;;;4835695;29;20199;-67
2023/01/16 05:05:51;;;;;;;26.17;24.53;;;-0.40;99.90;;;;;;4840565;29;20238;-70
2023/01/16 05:08:16;;;;;;;20.40;18.97;;;-0.30;99.90;;;;;;4826143;29;20236;-70
2023/01/16 05:10:42;;;;;;;12.13;11.43;;;-0.40;99.90;;;;;;4822474;29;20210;-70
2023/01/16 05:13:08;;;;;;;11.10;10.30;;;-0.40;99.90;;;;;;4839796;29;20271;-70
2023/01/16 05:15:34;;;;;;;11.63;10.93;;;-0.50;99.90;;;;;;4857596;29;20597;-70
2023/01/16 05:18:00;;;;;;;16.83;15.73;;;-0.50;99.90;;;;;;4858580;29;20256;-70
2023/01/16 05:20:25;;;;;;;24.70;22.67;;;-0.50;99.90;;;;;;4857556;29;20220;-70
2023/01/16 05:22:51;;;;;;;19.07;17.47;;;-0.50;99.90;;;;;;4857538;29;20181;-70
2023/01/16 05:25:17;;;;;;;20.27;18.63;;;-0.40;99.90;;;;;;4857797;29;20272;-70
2023/01/16 05:27:43;;;;;;;20.87;19.43;;;-0.40;99.90;;;;;;4857570;29;20232;-70
2023/01/16 05:30:09;;;;;;;21.40;19.77;;;-0.40;99.90;;;;;;4858751;29;20191;-70
2023/01/16 05:32:35;;;;;;;17.50;16.53;;;-0.40;99.90;;;;;;4857550;29;20242;-70
2023/01/16 05:35:02;;;;;;;14.50;13.70;;;-0.40;99.90;;;;;;4858870;29;20233;-70
2023/01/16 05:37:28;;;;;;;13.67;12.97;;;-0.40;99.90;;;;;;4857975;29;20200;-70
2023/01/16 05:39:56;;;;;;;14.40;13.50;;;-0.40;99.90;;;;;;4858823;29;20225;-70
2023/01/16 05:42:24;;;;;;;14.00;13.27;;;-0.40;99.90;;;;;;4858594;29;20208;-70
2023/01/16 05:44:51;;;;;;;14.03;13.23;;;-0.30;99.90;;;;;;4857331;29;20219;-70
2023/01/16 05:47:19;;;;;;;17.83;16.93;;;-0.30;99.90;;;;;;4858018;29;20582;-70
2023/01/16 05:49:45;;;;;;;10.37;9.50;;;-0.30;99.90;;;;;;4858703;29;20192;-70
2023/01/16 05:52:11;;;;;;;21.43;20.27;;;-0.40;99.90;;;;;;4858244;29;20212;-70
2023/01/16 05:54:36;;;;;;;17.67;16.73;;;-0.50;99.90;;;;;;4858547;29;20681;-70
2023/01/16 05:57:02;;;;;;;16.33;15.40;;;-0.50;99.90;;;;;;4856459;29;20220;-70
2023/01/16 05:59:28;;;;;;;18.87;17.83;;;-0.50;99.90;;;;;;4857608;29;20221;-70
2023/01/16 06:01:54;;;;;;;16.80;15.90;;;-0.50;99.90;;;;;;4858454;29;20216;-70
2023/01/16 06:04:20;;;;;;;13.10;12.30;;;-0.50;99.90;;;;;;4856802;29;20816;-70
2023/01/16 06:06:46;;;;;;;13.70;12.60;;;-0.40;99.90;;;;;;4857210;29;20221;-69
2023/01/16 06:09:12;;;;;;;18.43;17.23;;;-0.40;99.90;;;;;;4856859;29;20725;-70
2023/01/16 06:11:37;;;;;;;15.57;14.33;;;-0.30;99.90;;;;;;4858851;29;20204;-69
2023/01/16 06:14:04;;;;;;;15.20;14.10;;;-0.30;99.90;;;;;;4858884;29;20189;-70
2023/01/16 06:16:34;;;;;;;19.47;18.40;;;-0.20;99.90;;;;;;4858624;29;20202;-70
2023/01/16 06:19:01;;;;;;;15.50;14.60;;;-0.20;99.90;;;;;;4857156;29;20220;-69
2023/01/16 06:21:27;;;;;;;19.33;18.33;;;-0.10;99.90;;;;;;4858639;29;20217;-70
2023/01/16 06:23:53;;;;;;;252.37;236.77;;;0.00;99.90;;;;;;4857699;29;20756;-71
2023/01/16 06:26:19;;;;;;;55.17;52.47;;;0.10;99.90;;;;;;4859012;29;20191;-71
2023/01/16 06:28:45;;;;;;;32.57;30.97;;;0.20;99.90;;;;;;4858597;29;20246;-71
2023/01/16 06:31:11;;;;;;;15.27;14.40;;;0.30;99.90;;;;;;4858723;29;20219;-71
2023/01/16 06:33:37;;;;;;;12.23;11.33;;;0.40;99.90;;;;;;4857376;29;20559;-71
2023/01/16 06:36:04;;;;;;;10.40;7.20;;;0.40;99.90;;;;;;4858519;29;20197;-71
2023/01/16 06:38:30;;;;;;;10.27;9.77;;;0.40;99.90;;;;;;4856897;29;20213;-70
2023/01/16 06:40:56;;;;;;;9.33;8.83;;;0.40;99.90;;;;;;4856279;29;20207;-71
2023/01/16 06:43:26;;;;;;;8.53;8.13;;;0.50;99.90;;;;;;4826584;29;20700;-71
2023/01/16 06:45:57;;;;;;;7.90;7.27;;;0.50;99.90;;;;;;4805274;29;20202;-71
2023/01/16 06:48:23;;;;;;;39.33;37.23;;;0.50;99.90;;;;;;4844569;29;20248;-71
2023/01/16 06:50:49;;;;;;;10.43;9.83;;;0.50;99.90;;;;;;4858879;29;20211;-71
2023/01/16 06:53:15;;;;;;;5.23;4.97;;;0.60;99.90;;;;;;4858129;29;20188;-71
2023/01/16 06:55:41;;;;;;;9.80;9.00;;;0.60;99.90;;;;;;4858358;29;20238;-70
2023/01/16 06:58:08;;;;;;;8.47;8.03;;;0.70;99.90;;;;;;4857568;29;20556;-70
2023/01/16 07:00:35;;;;;;;8.33;7.50;;;0.70;99.90;;;;;;4857398;29;20238;-71
2023/01/16 07:03:01;;;;;;;6.13;5.73;;;0.70;99.90;;;;;;4858375;29;20204;-71
2023/01/16 07:05:29;;;;;;;8.43;7.93;;;0.70;99.90;;;;;;4856785;29;20192;-71
2023/01/16 07:07:55;;;;;;;9.60;8.90;;;0.80;99.90;;;;;;4857800;29;20665;-71
2023/01/16 07:10:22;;;;;;;9.90;8.57;;;0.80;99.90;;;;;;4857934;29;20221;-71
2023/01/16 07:12:52;;;;;;;8.23;7.57;;;0.90;99.90;;;;;;4856647;29;20660;-71
2023/01/16 07:23:41;;;;;;;7.50;6.97;;;1.10;99.90;;;;;;4861673;29;20276;-68
2023/01/16 07:26:08;;;;;;;6.10;5.40;;;1.30;99.90;;;;;;4860055;29;20721;-71
2023/01/16 07:28:35;;;;;;;6.77;6.33;;;1.50;99.90;;;;;;4859839;29;20216;-70
2023/01/16 07:31:03;;;;;;;5.60;5.30;;;1.70;99.90;;;;;;4861260;29;20204;-72
2023/01/16 07:33:29;;;;;;;6.17;5.80;;;1.90;99.90;;;;;;4860824;29;20660;-69
2023/01/16 07:35:55;;;;;;;5.40;5.10;;;2.00;99.90;;;;;;4860837;29;20185;-72
2023/01/16 07:38:21;;;;;;;5.23;4.93;;;2.20;99.90;;;;;;4860854;29;20343;-69
2023/01/16 07:40:46;;;;;;;6.07;5.77;;;2.20;99.90;;;;;;4859735;29;20211;-69
2023/01/16 07:43:12;;;;;;;11.20;10.20;;;2.40;99.90;;;;;;4859573;29;20200;-69
2023/01/16 07:45:38;;;;;;;5.93;5.67;;;2.50;99.90;;;;;;4860914;29;20271;-73
2023/01/16 07:48:04;;;;;;;9.97;9.47;;;2.60;99.90;;;;;;4858206;29;20216;-70
2023/01/16 07:50:30;;;;;;;13.70;13.03;;;2.70;99.90;;;;;;4859284;29;20208;-70
2023/01/16 07:52:56;;;;;;;7.17;6.87;;;2.70;99.90;;;;;;4859311;29;20225;-70
2023/01/16 07:55:23;;;;;;;7.20;6.80;;;2.70;99.90;;;;;;4859877;29;20176;-69
2023/01/16 07:57:49;;;;;;;8.13;7.77;;;2.80;99.90;;;;;;4849476;29;20295;-69
2023/01/16 08:00:15;;;;;;;8.60;8.20;;;3.00;99.90;;;;;;4835292;29;20197;-69
2023/01/16 08:02:42;;;;;;;11.00;10.30;;;3.10;99.90;;;;;;4823990;29;20253;-69
2023/01/16 08:05:09;;;;;;;6.57;6.07;;;3.20;99.90;;;;;;4852027;29;20189;-70
2023/01/16 08:07:35;;;;;;;5.80;5.50;;;3.30;99.90;;;;;;4835571;29;20198;-70
2023/01/16 08:10:02;;;;;;;6.13;5.73;;;3.30;99.90;;;;;;4841041;29;20274;-71
2023/01/16 08:12:27;;;;;;;7.53;6.17;;;3.30;99.90;;;;;;4849832;29;20216;-71
2023/01/16 08:14:53;;;;;;;6.20;5.90;;;3.40;99.90;;;;;;4861420;29;20737;-70
2023/01/16 08:17:19;;;;;;;6.83;6.43;;;3.40;99.90;;;;;;4860731;29;20193;-70
2023/01/16 08:19:45;;;;;;;5.40;5.20;;;3.40;99.90;;;;;;4860168;29;20241;-70
2023/01/16 08:22:10;;;;;;;6.37;6.07;;;3.40;99.90;;;;;;4860668;29;20209;-69
2023/01/16 08:24:36;;;;;;;7.43;6.60;;;3.40;99.90;;;;;;4860546;29;20188;-70
2023/01/16 08:27:02;;;;;;;6.17;5.97;;;3.50;99.90;;;;;;4859815;29;20279;-71
2023/01/16 08:29:28;;;;;;;5.23;5.03;;;3.60;99.90;;;;;;4861188;29;20227;-70
2023/01/16 08:31:53;;;;;;;6.87;6.57;;;3.60;99.90;;;;;;4860863;29;20218;-70
2023/01/16 08:34:19;;;;;;;6.10;5.80;;;3.60;99.90;;;;;;4860838;29;20673;-69
2023/01/16 08:36:45;;;;;;;6.90;6.50;;;3.50;99.90;;;;;;4857928;29;20239;-69
2023/01/16 08:39:12;;;;;;;6.27;6.07;;;3.60;99.90;;;;;;4858654;29;20196;-70
2023/01/16 08:53:04;;;;;;;4.93;4.63;;;3.80;99.90;;;;;;4856301;29;20189;-70
2023/01/16 08:55:29;;;;;;;4.60;4.40;;;3.80;99.90;;;;;;4827670;29;20680;-70
2023/01/16 08:57:58;;;;;;;5.00;4.70;;;3.90;99.90;;;;;;4822670;29;20191;-70
2023/01/16 09:00:28;;;;;;;5.20;4.90;;;4.00;99.90;;;;;;4844696;29;20202;-70
2023/01/16 09:02:56;;;;;;;5.60;5.17;;;4.10;99.90;;;;;;4859569;29;20204;-70
2023/01/16 09:05:22;;;;;;;5.07;4.87;;;4.10;99.90;;;;;;4859423;29;20210;-70
2023/01/16 09:07:48;;;;;;;4.80;4.60;;;4.10;99.90;;;;;;4858284;29;20210;-70
2023/01/16 09:10:14;;;;;;;4.80;4.57;;;4.20;99.90;;;;;;4859622;29;20212;-70
2023/01/16 09:15:25;;;;;;;5.53;5.23;;;4.30;99.90;;;;;;4859296;29;20192;-70
2023/01/16 09:17:51;;;;;;;11.30;6.57;;;4.30;99.90;;;;;;4858897;29;20192;-70
2023/01/16 09:20:17;;;;;;;7.40;6.03;;;4.40;99.90;;;;;;4859441;29;20249;-70
2023/01/16 09:22:43;;;;;;;4.80;4.60;;;4.40;99.90;;;;;;4859704;29;20207;-70
2023/01/16 09:25:09;;;;;;;4.93;4.67;;;4.50;99.90;;;;;;4859277;29;20197;-70
2023/01/16 09:27:35;;;;;;;5.90;4.90;;;4.60;99.90;;;;;;4859403;29;20531;-71
2023/01/16 09:30:01;;;;;;;5.60;5.30;;;4.60;99.90;;;;;;4859744;29;20227;-70
2023/01/16 09:32:27;;;;;;;5.97;4.70;;;4.70;99.90;;;;;;4859051;29;20204;-70
2023/01/16 09:34:53;;;;;;;4.53;4.43;;;4.80;99.90;;;;;;4858150;29;20230;-70
2023/01/16 09:37:18;;;;;;;5.33;5.00;;;4.80;99.90;;;;;;4857659;29;20250;-70
2023/01/16 09:39:44;;;;;;;6.43;6.07;;;4.80;99.90;;;;;;4859735;29;20692;-71
2023/01/16 09:45:23;;;;;;;6.73;6.23;;;4.90;99.90;;;;;;4823651;29;20194;-70
2023/01/16 09:47:57;;;;;;;6.10;5.60;;;5.00;99.90;;;;;;4822662;29;20195;-70
2023/01/16 09:50:36;;;;;;;5.40;5.10;;;5.00;99.90;;;;;;4858249;29;20308;-70
2023/01/16 09:58:48;;;;;;;6.07;5.67;;;5.00;99.90;;;;;;4857956;29;20200;-70
2023/01/16 10:01:26;;;;;;;5.83;5.40;;;5.00;99.90;;;;;;4856456;29;20222;-70
2023/01/16 10:04:03;;;;;;;6.43;6.03;;;5.00;99.90;;;;;;4835690;29;20194;-70
2023/01/16 10:06:41;;;;;;;5.63;5.37;;;4.90;99.90;;;;;;4822666;29;20201;-70
2023/01/16 10:09:33;;;;;;;7.10;6.60;;;5.00;99.90;;;;;;4833213;29;20212;-70
2023/01/16 10:12:08;;;;;;;7.40;6.90;;;5.10;99.90;;;;;;4831393;29;20221;-70
2023/01/16 10:17:10;;;;;;;8.40;7.93;;;5.30;99.90;;;;;;4849676;29;20299;-70
2023/01/16 10:19:59;;;;;;;8.13;7.63;;;5.50;99.90;;;;;;4858257;29;20189;-71
2023/01/16 10:22:48;;;;;;;7.40;7.00;;;5.60;99.90;;;;;;4858577;29;20279;-71
2023/01/16 10:25:31;;;;;;;10.23;9.13;;;5.80;99.90;;;;;;4854021;29;20572;-71
2023/01/16 10:28:03;;;;;;;8.57;6.90;;;5.90;99.90;;;;;;4839807;29;20193;-74
2023/01/16 10:30:50;;;;;;;7.83;7.17;;;5.90;99.90;;;;;;4840066;29;20220;-72
2023/01/16 10:33:32;;;;;;;6.13;5.67;;;6.00;99.90;;;;;;4840173;29;20193;-71
2023/01/16 10:36:01;;;;;;;5.93;4.80;;;6.00;99.90;;;;;;4855962;29;20244;-70
2023/01/16 10:38:45;;;;;;;9.00;7.30;;;6.00;99.90;;;;;;4845342;29;20193;-71
2023/01/16 10:50:23;;;;;;;4.37;4.07;;;5.90;99.90;;;;;;4841846;29;20217;-73
2023/01/16 10:52:49;;;;;;;10.87;8.30;;;5.90;99.90;;;;;;4839979;29;20190;-73
2023/01/16 10:55:16;;;;;;;6.07;5.43;;;5.90;99.90;;;;;;4854861;29;20262;-72
2023/01/16 10:57:54;;;;;;;11.27;7.23;;;5.90;99.90;;;;;;4843488;29;20185;-73
2023/01/16 11:00:30;;;;;;;5.07;4.80;;;5.90;99.90;;;;;;4843504;29;20193;-72
2023/01/16 11:03:23;;;;;;;4.60;4.27;;;5.80;99.90;;;;;;4842761;29;20670;-73
2023/01/16 11:05:48;;;;;;;4.47;4.27;;;5.70;99.90;;;;;;4842360;29;20229;-73
2023/01/16 11:08:18;;;;;;;4.60;4.40;;;5.70;99.90;;;;;;4841678;29;20190;-72
2023/01/16 11:10:47;;;;;;;4.30;4.20;;;5.70;99.90;;;;;;4843027;29;20552;-72
2023/01/16 11:19:18;;;;;;;4.57;4.37;;;5.70;99.90;;;;;;4843116;29;20182;-72
2023/01/16 11:21:52;;;;;;;4.10;4.00;;;5.70;99.90;;;;;;4841958;29;20291;-72
2023/01/16 11:24:28;;;;;;;5.17;4.93;;;5.60;99.90;;;;;;4841610;29;20238;-72
2023/01/16 11:26:57;;;;;;;5.90;5.50;;;5.70;99.90;;;;;;4841239;29;20640;-71
2023/01/16 11:29:30;;;;;;;4.23;4.13;;;5.70;99.90;;;;;;4841555;29;20697;-72
2023/01/16 11:31:59;;;;;;;4.30;4.10;;;5.70;99.90;;;;;;4842664;29;20194;-72
2023/01/16 11:34:28;;;;;;;5.77;5.37;;;5.70;99.90;;;;;;4857208;29;20589;-72
2023/01/16 11:36:56;;;;;;;5.03;4.63;;;5.70;99.90;;;;;;4842352;29;20202;-72
2023/01/16 11:39:27;;;;;;;4.60;4.20;;;5.70;99.90;;;;;;4842339;29;20185;-72
2023/01/16 11:41:56;;;;;;;4.53;4.33;;;5.70;99.90;;;;;;4840848;29;20341;-72
2023/01/16 11:47:26;;;;;;;4.70;4.50;;;5.70;99.90;;;;;;4792618;29;20198;-72
2023/01/16 11:49:53;;;;;;;9.37;6.20;;;5.80;99.90;;;;;;4822992;29;20213;-72
2023/01/16 11:52:29;;;;;;;5.97;5.47;;;5.90;99.90;;;;;;4823969;29;20192;-72
2023/01/16 11:55:03;;;;;;;6.23;5.27;;;6.00;99.90;;;;;;4823846;29;20182;-72
2023/01/16 11:57:41;;;;;;;7.83;7.03;;;6.00;99.90;;;;;;4823767;29;20679;-72
2023/01/16 12:00:24;;;;;;;5.57;5.00;;;6.20;99.90;;;;;;4823819;29;20285;-72
2023/01/16 12:03:28;;;;;;;5.00;4.80;;;6.40;99.90;;;;;;4838103;29;20285;-72
2023/01/16 12:06:24;;;;;;;6.63;6.13;;;6.50;99.90;;;;;;4823949;29;20214;-72
2023/01/16 12:09:05;;;;;;;5.17;4.87;;;6.70;99.90;;;;;;4823016;29;20738;-72
2023/01/16 12:11:40;;;;;;;4.47;4.37;;;6.80;99.90;;;;;;4823591;29;20183;-73
2023/01/16 12:14:27;;;;;;;7.90;6.83;;;6.90;99.90;;;;;;4830868;29;20193;-72
2023/01/16 12:17:05;;;;;;;6.90;6.30;;;6.90;99.90;;;;;;4822175;29;20286;-72
2023/01/16 12:19:49;;;;;;;5.40;5.10;;;7.10;99.90;;;;;;4830980;29;20246;-72
2023/01/16 12:22:38;;;;;;;12.13;7.07;;;7.10;99.90;;;;;;4834395;29;20191;-73
2023/01/16 12:25:16;;;;;;;8.07;7.20;;;7.20;99.90;;;;;;4826844;29;20645;-73
2023/01/16 12:28:00;;;;;;;5.00;4.70;;;7.20;99.90;;;;;;4823143;29;20197;-72
2023/01/16 12:30:38;;;;;;;5.10;4.60;;;7.20;99.90;;;;;;4823384;29;20218;-72
2023/01/16 12:33:21;;;;;;;4.80;4.50;;;7.20;99.90;;;;;;4823454;29;20242;-72
2023/01/16 12:36:06;;;;;;;4.63;4.43;;;7.10;99.90;;;;;;4823353;29;20650;-73
2023/01/16 12:39:06;;;;;;;3.60;3.50;;;7.10;99.90;;;;;;4821843;29;20191;-72
2023/01/16 12:45:06;;;;;;;4.07;3.97;;;7.20;99.90;;;;;;4822956;29;20186;-73
2023/01/16 12:47:41;;;;;;;3.67;3.57;;;7.20;99.90;;;;;;4822562;29;20691;-72
2023/01/16 12:50:42;;;;;;;3.83;3.73;;;7.30;99.90;;;;;;4837479;29;20219;-73
2023/01/16 12:53:24;;;;;;;4.43;4.23;;;7.30;99.90;;;;;;4855457;29;20201;-73
2023/01/16 12:56:06;;;;;;;3.80;3.70;;;7.30;99.90;;;;;;4840296;29;20205;-72
2023/01/16 12:58:37;;;;;;;4.10;3.90;;;7.30;99.90;;;;;;4840690;29;20190;-72
2023/01/16 13:01:12;;;;;;;4.30;4.20;;;7.30;99.90;;;;;;4841755;29;20217;-72
2023/01/16 13:03:52;;;;;;;4.10;4.00;;;7.40;99.90;;;;;;4841297;29;20276;-73
2023/01/16 13:06:36;;;;;;;4.43;4.23;;;7.40;99.90;;;;;;4839808;29;20341;-73
2023/01/16 13:09:09;;;;;;;3.80;3.70;;;7.50;99.90;;;;;;4840492;29;20244;-72
2023/01/16 13:14:32;;;;;;;3.90;3.80;;;7.60;99.90;;;;;;4841067;29;20217;-72
2023/01/16 13:17:12;;;;;;;3.93;3.73;;;7.60;99.90;;;;;;4840798;29;20234;-73
2023/01/16 13:19:40;;;;;;;3.63;3.53;;;7.70;99.90;;;;;;4839722;29;20222;-72
2023/01/16 13:22:06;;;;;;;3.63;3.53;;;7.70;99.90;;;;;;4839902;29;20272;-72
2023/01/16 13:24:42;;;;;;;4.63;4.33;;;7.70;99.90;;;;;;4840892;29;20213;-73
2023/01/16 13:27:18;;;;;;;3.60;3.50;;;7.60;99.90;;;;;;4840408;29;20185;-73
2023/01/16 13:29:54;;;;;;;4.40;4.10;;;7.60;99.90;;;;;;4840661;29;20247;-72
2023/01/16 13:32:31;;;;;;;3.77;3.67;;;7.60;99.90;;;;;;4840673;29;20188;-72
2023/01/16 13:35:15;;;;;;;3.57;3.47;;;7.60;99.90;;;;;;4840477;29;20184;-73
2023/01/16 13:37:56;;;;;;;4.40;4.30;;;7.50;99.90;;;;;;4840233;29;20218;-73
2023/01/16 13:40:30;;;;;;;4.53;4.37;;;7.50;99.90;;;;;;4840894;29;20559;-73
2023/01/16 13:45:47;;;;;;;4.97;4.87;;;7.60;99.90;;;;;;4840966;29;20190;-73
2023/01/16 13:45:49;;;;;;;4.73;4.63;;;7.80;99.90;;;;;;4840460;29;20683;-73
2023/01/16 13:48:21;;;;;;;3.77;3.67;;;8.10;99.90;;;;;;4839924;29;20568;-73
2023/01/16 13:51:01;;;;;;;3.40;3.30;;;8.30;99.90;;;;;;4838976;29;20224;-73
2023/01/16 13:53:31;;;;;;;4.13;3.93;;;8.30;99.90;;;;;;4840386;29;20231;-73
2023/01/16 13:56:05;;;;;;;3.70;3.60;;;8.40;99.90;;;;;;4840522;29;20208;-73
2023/01/16 13:58:31;;;;;;;3.63;3.53;;;8.70;99.90;;;;;;4848480;29;20212;-73
2023/01/16 14:01:05;;;;;;;4.17;4.07;;;8.80;99.90;;;;;;4854302;29;20567;-73
2023/01/16 14:03:33;;;;;;;4.20;4.10;;;9.60;99.90;;;;;;4840544;29;20280;-73
2023/01/16 14:06:20;;;;;;;5.90;5.60;;;10.80;99.90;;;;;;4839282;29;20208;-73
2023/01/16 14:09:07;;;;;;;6.80;6.60;;;12.50;99.90;;;;;;4838642;29;20213;-73
2023/01/16 14:11:35;;;;;;;3.97;3.87;;;13.10;99.90;;;;;;4840513;29;20206;-72
2023/01/16 14:17:46;;;;;;;5.23;5.03;;;11.30;99.90;;;;;;4840107;29;20198;-72
2023/01/16 14:20:47;;;;;;;4.53;4.43;;;12.50;99.90;;;;;;4838516;29;20206;-73
2023/01/16 14:26:33;;;;;;;3.50;3.40;;;12.90;99.90;;;;;;4852606;29;20262;-72
2023/01/16 14:29:12;;;;;;;5.30;5.10;;;11.60;99.90;;;;;;4845410;29;20190;-73
2023/01/16 14:32:14;;;;;;;5.60;5.40;;;10.60;99.90;;;;;;4845990;29;20200;-73
2023/01/16 14:34:51;;;;;;;5.53;5.33;;;9.70;99.90;;;;;;4846164;29;20204;-73
2023/01/16 14:37:17;;;;;;;6.90;6.50;;;9.00;99.90;;;;;;4843809;29;20185;-72
2023/01/16 14:39:50;;;;;;;6.80;6.47;;;8.80;99.90;;;;;;4844017;29;20724;-73
2023/01/16 14:57:11;;;;;;;3.87;3.77;;;7.50;99.90;;;;;;4843785;29;20220;-76
2023/01/16 14:59:44;;;;;;;3.83;3.73;;;7.30;99.90;;;;;;4843314;29;20878;-75
2023/01/16 15:02:37;;;;;;;4.63;4.53;;;7.20;99.90;;;;;;4843735;29;20555;-75
2023/01/16 15:05:03;;;;;;;5.30;5.10;;;7.20;99.90;;;;;;4843654;29;20206;-73
2023/01/16 15:07:34;;;;;;;5.40;5.20;;;7.40;99.90;;;;;;4842623;29;20188;-74
2023/01/16 15:10:06;;;;;;;4.57;4.47;;;7.40;99.90;;;;;;4843753;29;20204;-74
2023/01/16 15:12:38;;;;;;;5.50;5.30;;;7.30;99.90;;;;;;4845319;29;20210;-73
2023/01/16 15:15:05;;;;;;;5.37;5.13;;;7.10;99.90;;;;;;4855440;29;20210;-74
2023/01/16 15:23:29;;;;;;;6.10;5.90;;;6.70;99.90;;;;;;4843370;29;20719;-74
2023/01/16 15:26:05;;;;;;;6.77;6.47;;;6.60;99.90;;;;;;4845193;29;20201;-75
2023/01/16 15:28:43;;;;;;;7.90;7.30;;;6.50;99.90;;;;;;4843386;29;20282;-74
2023/01/16 15:31:57;;;;;;;8.40;7.87;;;6.40;99.90;;;;;;4843193;29;20273;-74
2023/01/16 15:34:28;;;;;;;9.20;8.80;;;6.40;99.90;;;;;;4804649;29;20641;-74
2023/01/16 15:36:56;;;;;;;9.30;8.87;;;6.30;99.90;;;;;;4804064;29;20600;-74
2023/01/16 15:39:25;;;;;;;8.57;8.17;;;6.20;99.90;;;;;;4830802;29;20213;-74
2023/01/16 15:48:40;;;;;;;7.53;6.87;;;6.10;99.90;;;;;;4842800;29;20580;-74
2023/01/16 15:51:15;;;;;;;5.87;5.67;;;6.20;99.90;;;;;;4840803;29;20218;-76
2023/01/16 15:53:45;;;;;;;5.93;5.67;;;6.20;99.90;;;;;;4841509;29;20245;-75
2023/01/16 15:56:35;;;;;;;4.40;4.30;;;6.30;99.90;;;;;;4842737;29;20213;-75
2023/01/16 15:59:00;;;;;;;4.07;3.97;;;6.40;99.90;;;;;;4842001;29;20214;-74
2023/01/16 16:01:32;;;;;;;5.83;5.53;;;6.40;99.90;;;;;;4842664;29;20189;-73
2023/01/16 16:04:01;;;;;;;19.77;18.87;;;6.30;99.90;;;;;;4841768;29;20190;-74
2023/01/16 16:06:34;;;;;;;38.77;36.73;;;6.30;99.90;;;;;;4842936;29;20201;-73
2023/01/16 16:09:02;;;;;;;19.70;18.77;;;6.10;99.90;;;;;;4842532;29;20200;-73
2023/01/16 16:20:31;;;;;;;9.87;9.33;;;5.80;99.90;;;;;;4860772;29;20224;-72
2023/01/16 16:23:19;;;;;;;6.33;6.13;;;5.80;99.90;;;;;;4860651;29;20558;-72
2023/01/16 16:25:50;;;;;;;5.83;5.60;;;5.80;99.90;;;;;;4858984;29;20213;-73
2023/01/16 16:28:40;;;;;;;12.33;11.83;;;5.70;99.90;;;;;;4859907;29;20345;-73
2023/01/16 16:31:12;;;;;;;8.93;8.53;;;5.60;99.90;;;;;;4860230;29;20181;-73
2023/01/16 16:33:39;;;;;;;6.27;5.97;;;5.50;99.90;;;;;;4860311;29;20193;-74
2023/01/16 16:36:05;;;;;;;7.07;6.73;;;5.40;99.90;;;;;;4859955;29;20205;-73
2023/01/16 16:38:45;;;;;;;7.13;6.83;;;5.40;99.90;;;;;;4859705;29;20197;-73
2023/01/16 16:41:17;;;;;;;5.63;5.43;;;5.40;99.90;;;;;;4858729;29;20709;-71
2023/01/16 16:43:52;;;;;;;5.87;5.30;;;5.40;99.90;;;;;;4859909;29;20698;-73
2023/01/16 16:46:24;;;;;;;5.60;5.40;;;5.30;99.90;;;;;;4859971;29;20620;-73
2023/01/16 16:48:58;;;;;;;5.80;5.50;;;5.20;99.90;;;;;;4859616;29;20279;-73
2023/01/16 16:51:31;;;;;;;6.83;6.43;;;5.20;99.90;;;;;;4859897;29;20262;-73
2023/01/16 16:53:58;;;;;;;6.30;6.00;;;5.10;99.90;;;;;;4858772;29;20276;-73
2023/01/16 16:56:27;;;;;;;6.83;6.43;;;5.20;99.90;;;;;;4858534;29;20201;-73
2023/01/16 16:58:53;;;;;;;5.23;4.97;;;5.20;99.90;;;;;;4859434;29;20223;-73
2023/01/16 17:01:21;;;;;;;5.37;5.03;;;5.20;99.90;;;;;;4859772;29;20181;-74
2023/01/16 17:03:51;;;;;;;6.07;5.77;;;5.30;99.90;;;;;;4859882;29;20196;-73
2023/01/16 17:06:21;;;;;;;6.37;5.90;;;5.30;99.90;;;;;;4860143;29;20201;-73
2023/01/16 17:08:47;;;;;;;5.90;5.47;;;5.40;99.90;;;;;;4858665;29;20221;-73
2023/01/16 17:11:13;;;;;;;4.83;4.60;;;5.50;99.90;;;;;;4859636;29;20216;-73
2023/01/16 17:13:40;;;;;;;4.80;4.50;;;5.50;99.90;;;;;;4858672;29;20245;-73
2023/01/16 17:16:22;;;;;;;6.07;5.57;;;5.50;99.90;;;;;;4842440;29;20225;-71
2023/01/16 17:18:52;;;;;;;5.97;5.70;;;5.50;99.90;;;;;;4838621;29;20242;-72
2023/01/16 17:21:18;;;;;;;5.70;5.40;;;5.40;99.90;;;;;;4840987;29;20221;-72
2023/01/16 17:23:45;;;;;;;5.63;5.33;;;5.40;99.90;;;;;;4841201;29;20276;-73
2023/01/16 17:26:12;;;;;;;9.03;8.23;;;5.30;99.90;;;;;;4840607;29;20222;-72
2023/01/16 17:28:39;;;;;;;8.40;7.40;;;5.40;99.90;;;;;;4845891;29;20185;-79
2023/01/16 17:31:13;;;;;;;8.47;7.67;;;5.40;99.90;;;;;;4855938;29;20189;-78
2023/01/16 17:33:39;;;;;;;6.20;5.87;;;5.40;99.90;;;;;;4851034;29;20192;-80
2023/01/16 17:36:12;;;;;;;9.30;8.13;;;5.30;99.90;;;;;;4855882;29;20229;-79
2023/01/16 17:38:40;;;;;;;6.83;6.27;;;5.30;99.90;;;;;;4857701;29;20189;-80
2023/01/16 17:41:13;;;;;;;4.87;4.67;;;5.20;99.90;;;;;;4831070;29;20215;-80
2023/01/16 17:46:24;;;;;;;5.10;4.80;;;5.30;99.90;;;;;;4850617;29;20345;-80
2023/01/16 17:48:50;;;;;;;6.30;6.10;;;5.30;99.90;;;;;;4851837;29;20190;-86
2023/01/16 17:51:23;;;;;;;8.17;7.87;;;5.20;99.90;;;;;;4872766;29;20188;-81
2023/01/16 17:53:52;;;;;;;12.13;11.53;;;5.30;99.90;;;;;;4862750;29;20195;-81
2023/01/16 17:56:26;;;;;;;9.37;9.03;;;5.20;99.90;;;;;;4864707;29;20209;-83
2023/01/16 17:58:53;;;;;;;9.20;8.80;;;5.20;99.90;;;;;;4855348;29;20192;-85
2023/01/16 18:01:30;;;;;;;14.27;13.67;;;5.20;99.90;;;;;;4847213;29;20194;-84
2023/01/16 18:04:09;;;;;;;16.13;15.43;;;5.10;99.90;;;;;;4844436;29;20216;-79
2023/01/16 18:06:37;;;;;;;16.07;15.30;;;5.20;99.90;;;;;;4848246;29;20206;-80
2023/01/16 18:09:06;;;;;;;14.70;14.10;;;5.20;99.90;;;;;;4847961;29;20201;-81
2023/01/16 18:17:23;;;;;;;26.43;25.20;;;5.10;99.90;;;;;;4859079;29;20225;-79
2023/01/16 18:20:01;;;;;;;16.60;15.80;;;5.10;99.90;;;;;;4858853;29;20218;-78
2023/01/16 18:22:31;;;;;;;30.50;29.07;;;5.10;99.90;;;;;;4858175;29;20596;-79
2023/01/16 18:24:57;;;;;;;15.83;15.13;;;5.10;99.90;;;;;;4853192;29;20197;-81
2023/01/16 18:27:29;;;;;;;37.70;35.93;;;5.20;99.90;;;;;;4852013;29;20178;-79
2023/01/16 18:29:55;;;;;;;30.87;29.37;;;5.10;99.90;;;;;;4851645;29;20201;-79
2023/01/16 18:32:28;;;;;;;39.00;37.10;;;5.10;99.90;;;;;;4869245;29;20213;-80
2023/01/16 18:35:03;;;;;;;11.93;11.43;;;5.20;99.90;;;;;;4868753;29;20193;-81
2023/01/16 18:37:30;;;;;;;19.37;18.50;;;5.10;99.90;;;;;;4852623;29;20202;-80
2023/01/16 19:02:15;;;;;;;10.97;10.47;;;5.10;99.90;;;;;;4852198;29;20246;-81
2023/01/16 19:04:42;;;;;;;10.10;9.60;;;5.10;99.90;;;;;;4851302;29;20266;-81
2023/01/16 19:07:14;;;;;;;8.03;7.50;;;5.10;99.90;;;;;;4851292;29;20209;-81
2023/01/16 19:09:41;;;;;;;6.10;5.90;;;5.20;99.90;;;;;;4851488;29;20698;-80
2023/01/16 19:12:08;;;;;;;6.40;6.10;;;5.10;99.90;;;;;;4859829;29;20230;-79
2023/01/16 19:14:36;;;;;;;6.60;6.27;;;5.10;99.90;;;;;;4860814;29;20229;-80
2023/01/16 19:17:02;;;;;;;7.00;6.77;;;5.10;99.90;;;;;;4859478;29;20458;-80
2023/01/16 19:19:28;;;;;;;7.03;6.73;;;5.10;99.90;;;;;;4855550;29;20225;-81
2023/01/16 19:21:58;;;;;;;7.17;6.77;;;5.10;99.90;;;;;;4855388;29;20252;-80
2023/01/16 19:24:28;;;;;;;7.50;7.10;;;5.00;99.90;;;;;;4852373;29;20210;-81
2023/01/16 19:26:54;;;;;;;7.60;7.30;;;5.00;99.90;;;;;;4854745;29;20209;-81